• Join FlightAware (Why Join?)
  • Login
  • US Flag 
 
07:42AM EST


 

Airport Tracker/Info


-or-


 

Live Flight TrackerFlight Track Log ✈ CFE8769 ✈ 29-Dec-2013 ✈ EGLC / LCY - LSZH / ZRH

Flight Track Log - Related Links

Times and Time Zones

All times are in EST time to prevent confusion due to time zone crossing. See the CFE8769 flight status page for this flight to view local times or setup timezone preferences in your user account.

Time Position Orientation Groundspeed Altitude Reporting Facility
EST Latitude Longitude Course Direction KTS MPH feet Rate Location/Type
02:58PM 51.5065 0.0178 280° West 132 152 2,000  Level FlightAware UK
02:58PM 51.5098 -0.0129 280° West 184 212 2,700 960 Climbing FlightAware UK
02:59PM 51.5238 -0.0268 329° Northwest 202 232 2,800 120 Climbing FlightAware UK
02:59PM 51.5492 -0.0169 14° North 216 249 2,800  Level FlightAware UK
02:59PM 51.5646 0.0048 41° Northeast 216 249 2,800  Level FlightAware UK
03:00PM 51.5745 0.0354 62° Northeast 230 265 2,800  Level FlightAware UK
03:00PM 51.5793 0.0711 78° East 252 290 2,800  Level FlightAware UK
03:00PM 51.5810 0.1343 88° East 256 295 2,800 720 Level FlightAware UK
03:01PM 51.5820 0.1718 88° East 258 297 3,400 1,980 Climbing FlightAware UK
03:01PM 51.5829 0.2094 88° East 260 299 4,000 1,980 Climbing FlightAware UK
03:01PM 51.5809 0.2342 97° East 262 302 4,400 1,980 Climbing FlightAware UK
03:01PM 51.5782 0.2461 110° East 260 299 4,600 1,560 Climbing FlightAware UK
03:02PM 51.5672 0.2927 111° Southeast 266 306 5,200 1,080 Climbing FlightAware UK
03:02PM 51.5580 0.3282 113° Southeast 268 308 5,400 1,200 Climbing FlightAware UK
03:03PM 51.5421 0.3868 114° Southeast 270 311 6,200 1,740 Climbing FlightAware UK
03:03PM 51.5326 0.4211 114° Southeast 274 315 6,800 1,980 Climbing FlightAware UK
03:03PM 51.5230 0.4562 114° Southeast 274 315 7,400 1,980 Climbing FlightAware UK
03:04PM 51.5135 0.4904 114° Southeast 276 318 8,000 1,980 Climbing FlightAware UK
03:04PM 51.5036 0.5248 115° Southeast 276 318 8,600 1,800 Climbing FlightAware UK
03:04PM 51.4930 0.5604 116° Southeast 280 322 9,100 1,800 Climbing FlightAware UK
03:04PM 51.4821 0.5970 116° Southeast 282 325 9,700 1,860 Climbing FlightAware UK
03:05PM 51.4638 0.6598 115° Southeast 298 343 10,600 2,100 Climbing FlightAware UK
03:05PM 51.4438 0.7265 116° Southeast 310 357 11,800 2,580 Climbing FlightAware UK
03:06PM 51.4227 0.7950 116° Southeast 328 377 13,200 2,880 Climbing FlightAware UK
03:06PM 51.4005 0.8630 118° Southeast 328 377 14,700 2,640 Climbing FlightAware UK
03:07PM 51.3636 0.9772 117° Southeast 342 394 16,700 2,520 Climbing FlightAware UK
03:08PM 51.3441 1.0534 112° Southeast 348 400 18,000 2,280 Climbing FlightAware UK
03:08PM 51.3319 1.1342 104° East 354 407 19,000 2,160 Climbing FlightAware UK
03:09PM 51.3196 1.2168 103° East 360 414 20,200 2,160 Climbing FlightAware UK
03:09PM 51.3045 1.3177 103° East 364 419 21,400 1,620 Climbing FlightAware UK
03:10PM 51.2888 1.4217 104° East 374 430 22,200 1,260 Climbing FlightAware UK
03:10PM 51.2746 1.5125 104° East 392 451 22,800 780 Climbing FlightAware UK
03:11PM 51.2601 1.6069 104° East 410 472 23,000 720 Climbing FlightAware UK
03:12PM 51.2418 1.7262 104° East 422 486 23,600 1,200 Climbing FlightAware UK
03:12PM 51.2186 1.8435 107° East 424 488 24,500 1,380 Climbing FlightAware UK
03:13PM 51.1890 1.9371 117° Southeast 428 493 25,200 1,140 Climbing FlightAware UK
03:13PM 51.1499 2.0467 120° Southeast 432 497 25,800 2,280 Climbing FlightAware UK
03:14PM 51.1178 2.1369 120° Southeast 410 472 27,700 2,580 Climbing FlightAware UK
03:14PM 51.0736 2.2610 119° Southeast 412 474 28,900 1,620 Climbing FlightAware UK
03:15PM 51.0411 2.3512 120° Southeast 414 476 29,700 1,320 Climbing FlightAware UK
03:16PM 51.0017 2.4597 120° Southeast 420 483 30,400 1,200 Climbing FlightAware UK
03:16PM 50.9681 2.5533 120° Southeast 424 488 31,000 1,080 Climbing FlightAware UK
03:17PM 50.9336 2.6485 120° Southeast 428 493 31,500 1,080 Climbing FlightAware UK
03:17PM 50.8984 2.7446 120° Southeast 430 495 32,100 1,080 Climbing FlightAware UK
03:18PM 50.8626 2.8422 120° Southeast 436 502 32,600 1,080 Climbing FlightAware UK
03:18PM 50.8267 2.9401 120° Southeast 436 502 33,200 1,200 Climbing FlightAware UK
03:19PM 50.7905 3.0377 120° Southeast 434 499 33,800 1,200 Climbing FlightAware UK
03:19PM 50.7541 3.1361 120° Southeast 436 502 34,400 2,760 Climbing FlightAware UK
03:20PM 50.7194 3.2306 120° Southeast 430 495 36,600 3,300 Climbing FlightAware UK
03:20PM 50.6868 3.3172 121° Southeast 404 465 37,700 1,500 Climbing FlightAware UK
03:21PM 50.6541 3.4047 120° Southeast 422 486 38,100 1,260 Climbing FlightAware UK
03:21PM 50.6216 3.4907 121° Southeast 418 481 39,000 900 Climbing FlightAware UK
03:22PM 50.5891 3.5767 121° Southeast 426 490 39,000  Level FlightAware UK
03:22PM 50.5553 3.6656 121° Southeast 432 497 39,000  Level FlightAware UK
03:23PM 50.5216 3.7549 121° Southeast 438 504 39,000  Level FlightAware UK
03:23PM 50.4876 3.8436 121° Southeast 434 499 39,000  Level FlightAware UK
03:24PM 50.4532 3.9321 121° Southeast 438 504 39,000  Level FlightAware UK
03:24PM 50.4065 4.0600 120° Southeast 442 509 39,000  Level FlightAware UK
03:25PM 50.3711 4.1472 122° Southeast 442 509 39,000  Level FlightAware UK
03:25PM 50.3358 4.2334 123° Southeast 440 506 39,000  Level FlightAware UK
03:26PM 50.3032 4.3213 120° Southeast 1 1 39,000  Level FlightAware UK
03:26PM 50.2708 4.4083 120° Southeast 1 1 39,000  Level FlightAware UK
03:27PM 50.2372 4.4924 122° Southeast 1 1 39,000  Level FlightAware UK
03:27PM 50.2012 4.5734 125° Southeast 1 1 39,000  Level FlightAware UK
03:28PM 50.1664 4.6590 122° Southeast 1 1 39,000  Level FlightAware UK
03:28PM 50.1341 4.7494 119° Southeast 1 1 39,000  Level FlightAware UK
03:29PM 50.0997 4.8354 122° Southeast 1 1 39,000  Level FlightAware UK
03:30PM 50.0469 4.9763 120° Southeast 1 1 39,000  Level FlightAware UK
03:32PM 49.9364 5.1404 136° Southeast  Level Estimated
03:39PM 49.5410 5.7185 136° Southeast  Level Estimated
03:40PM 49.4843 5.8003 137° Southeast  Level Estimated
03:41PM 49.4275 5.8820 137° Southeast  Level Estimated
03:42PM 49.3707 5.9634 137° Southeast  Level Estimated
03:43PM 49.3138 6.0447 137° Southeast  Level Estimated
03:44PM 49.2569 6.1257 137° Southeast  Level Estimated
03:45PM 49.1998 6.2066 137° Southeast  Level Estimated
03:46PM 49.1428 6.2873 137° Southeast  Level Estimated
03:47PM 49.0857 6.3678 137° Southeast  Level Estimated
03:48PM 49.0285 6.4481 137° Southeast  Level Estimated
03:49PM 48.9713 6.5283 137° Southeast  Level Estimated
03:50PM 48.9140 6.6082 137° Southeast  Level Estimated
03:51PM 48.8567 6.6880 138° Southeast  Level Estimated
03:52PM 48.7993 6.7676 138° Southeast  Level Estimated
03:53PM 48.7419 6.8470 138° Southeast  Level Estimated
03:54PM 48.6843 6.9262 138° Southeast  Level Estimated
03:55PM 48.6268 7.0053 138° Southeast  Level Estimated
03:56PM 48.5692 7.0842 138° Southeast  Level Estimated
03:57PM 48.5115 7.1628 138° Southeast  Level Estimated
03:58PM 48.4538 7.2414 138° Southeast  Level Estimated
03:59PM 48.3960 7.3197 138° Southeast  Level Estimated
04:00PM 48.3382 7.3978 138° Southeast  Level Estimated
04:01PM 48.2804 7.4758 138° Southeast  Level Estimated
04:02PM 48.2224 7.5536 138° Southeast  Level Estimated
04:03PM 48.1645 7.6312 138° Southeast  Level Estimated
04:04PM 48.1064 7.7087 138° Southeast  Level Estimated
04:05PM 48.0483 7.7860 138° Southeast  Level Estimated
04:06PM 47.9902 7.8630 138° Southeast  Level Estimated
04:07PM 47.9320 7.9400 138° Southeast  Level Estimated
04:08PM 47.8738 8.0167 139° Southeast  Level Estimated
04:09PM 47.8155 8.0933 139° Southeast  Level Estimated
04:10PM 47.7571 8.1697 139° Southeast  Level Estimated
04:11PM 47.6988 8.2459 139° Southeast  Level Estimated
04:12PM 47.6403 8.3220 139° Southeast  Level Estimated
04:13PM 47.5818 8.3979 139° Southeast  Level Estimated
04:14PM 47.5233 8.4736 139° Southeast  Level Estimated
04:15PM 47.4647 8.5492 139° Southeast  Level Estimated
04:16PM 47.4647 8.5492 315° West  Level Estimated
04:17PM 47.4647 8.5492 315° West  Level Estimated
04:18PM 47.4647 8.5492 315° West  Level Estimated